sensor_id;sensor_type;location;lat;lon;timestamp;temperature;humidity
10270;DHT22;70826;50.930;5.334;2024-02-26T00:00:45;20.40;75.90
10270;DHT22;70826;50.930;5.334;2024-02-26T00:03:14;20.40;75.90
10270;DHT22;70826;50.930;5.334;2024-02-26T00:05:42;20.50;75.90
10270;DHT22;70826;50.930;5.334;2024-02-26T00:08:07;20.40;75.90
10270;DHT22;70826;50.930;5.334;2024-02-26T00:10:33;20.40;75.90
10270;DHT22;70826;50.930;5.334;2024-02-26T00:12:58;20.40;75.90
10270;DHT22;70826;50.930;5.334;2024-02-26T00:15:24;20.40;75.90
10270;DHT22;70826;50.930;5.334;2024-02-26T00:17:50;20.40;75.90
10270;DHT22;70826;50.930;5.334;2024-02-26T00:20:16;20.40;76.00
10270;DHT22;70826;50.930;5.334;2024-02-26T00:22:41;20.40;75.90
10270;DHT22;70826;50.930;5.334;2024-02-26T00:25:09;20.40;75.90
10270;DHT22;70826;50.930;5.334;2024-02-26T00:27:37;20.40;76.00
10270;DHT22;70826;50.930;5.334;2024-02-26T00:30:08;20.40;76.00
10270;DHT22;70826;50.930;5.334;2024-02-26T00:32:37;20.40;75.90
10270;DHT22;70826;50.930;5.334;2024-02-26T00:35:03;20.40;75.90
10270;DHT22;70826;50.930;5.334;2024-02-26T00:37:35;20.40;76.00
10270;DHT22;70826;50.930;5.334;2024-02-26T00:40:04;20.40;76.00
10270;DHT22;70826;50.930;5.334;2024-02-26T00:42:32;20.40;76.00
10270;DHT22;70826;50.930;5.334;2024-02-26T00:44:58;20.40;76.00
10270;DHT22;70826;50.930;5.334;2024-02-26T00:47:26;20.40;76.00
10270;DHT22;70826;50.930;5.334;2024-02-26T00:49:58;20.40;76.00
10270;DHT22;70826;50.930;5.334;2024-02-26T00:52:27;20.40;76.00
10270;DHT22;70826;50.930;5.334;2024-02-26T00:54:55;20.40;76.00
10270;DHT22;70826;50.930;5.334;2024-02-26T00:57:25;20.40;76.00
10270;DHT22;70826;50.930;5.334;2024-02-26T00:59:51;20.40;76.00
10270;DHT22;70826;50.930;5.334;2024-02-26T01:02:21;20.40;76.00
10270;DHT22;70826;50.930;5.334;2024-02-26T01:04:49;20.40;76.00
10270;DHT22;70826;50.930;5.334;2024-02-26T01:07:17;20.40;76.00
10270;DHT22;70826;50.930;5.334;2024-02-26T01:09:45;20.40;76.10
10270;DHT22;70826;50.930;5.334;2024-02-26T01:12:11;20.40;76.00
10270;DHT22;70826;50.930;5.334;2024-02-26T01:14:39;20.40;76.00
10270;DHT22;70826;50.930;5.334;2024-02-26T01:17:04;20.40;76.10
10270;DHT22;70826;50.930;5.334;2024-02-26T01:19:32;20.40;76.00
10270;DHT22;70826;50.930;5.334;2024-02-26T01:22:00;20.40;76.10
10270;DHT22;70826;50.930;5.334;2024-02-26T01:24:26;20.40;76.10
10270;DHT22;70826;50.930;5.334;2024-02-26T01:26:56;20.40;76.10
10270;DHT22;70826;50.930;5.334;2024-02-26T01:29:28;20.40;76.10
10270;DHT22;70826;50.930;5.334;2024-02-26T01:32:04;20.40;76.10
10270;DHT22;70826;50.930;5.334;2024-02-26T01:34:32;20.40;76.10
10270;DHT22;70826;50.930;5.334;2024-02-26T01:37:00;20.40;76.00
10270;DHT22;70826;50.930;5.334;2024-02-26T01:39:30;20.40;76.10
10270;DHT22;70826;50.930;5.334;2024-02-26T01:41:56;20.30;76.00
10270;DHT22;70826;50.930;5.334;2024-02-26T01:44:29;20.40;76.10
10270;DHT22;70826;50.930;5.334;2024-02-26T01:46:58;20.40;76.10
10270;DHT22;70826;50.930;5.334;2024-02-26T01:49:24;20.40;76.10
10270;DHT22;70826;50.930;5.334;2024-02-26T01:51:54;20.40;76.10
10270;DHT22;70826;50.930;5.334;2024-02-26T01:54:25;20.40;76.10
10270;DHT22;70826;50.930;5.334;2024-02-26T01:56:53;20.30;76.00
10270;DHT22;70826;50.930;5.334;2024-02-26T01:59:22;20.30;76.00
10270;DHT22;70826;50.930;5.334;2024-02-26T02:01:52;20.40;76.10
10270;DHT22;70826;50.930;5.334;2024-02-26T02:04:26;20.40;76.10
10270;DHT22;70826;50.930;5.334;2024-02-26T02:06:59;20.40;76.10
10270;DHT22;70826;50.930;5.334;2024-02-26T02:09:27;20.30;76.10
10270;DHT22;70826;50.930;5.334;2024-02-26T02:11:58;20.30;76.10
10270;DHT22;70826;50.930;5.334;2024-02-26T02:14:24;20.30;76.00
10270;DHT22;70826;50.930;5.334;2024-02-26T02:16:50;20.40;76.10
10270;DHT22;70826;50.930;5.334;2024-02-26T02:19:18;20.30;76.10
10270;DHT22;70826;50.930;5.334;2024-02-26T02:21:44;20.30;76.10
10270;DHT22;70826;50.930;5.334;2024-02-26T02:24:11;20.30;76.10
10270;DHT22;70826;50.930;5.334;2024-02-26T02:26:39;20.30;76.10
10270;DHT22;70826;50.930;5.334;2024-02-26T02:29:08;20.30;76.10
10270;DHT22;70826;50.930;5.334;2024-02-26T02:31:36;20.30;76.10
10270;DHT22;70826;50.930;5.334;2024-02-26T02:34:04;20.30;76.10
10270;DHT22;70826;50.930;5.334;2024-02-26T02:36:32;20.30;76.10
10270;DHT22;70826;50.930;5.334;2024-02-26T02:39:00;20.30;76.10
10270;DHT22;70826;50.930;5.334;2024-02-26T02:41:25;20.30;76.10
10270;DHT22;70826;50.930;5.334;2024-02-26T02:43:55;20.30;76.10
10270;DHT22;70826;50.930;5.334;2024-02-26T02:46:20;20.30;76.10
10270;DHT22;70826;50.930;5.334;2024-02-26T02:48:46;20.40;76.10
10270;DHT22;70826;50.930;5.334;2024-02-26T02:51:14;20.30;76.10
10270;DHT22;70826;50.930;5.334;2024-02-26T02:53:42;20.30;76.10
10270;DHT22;70826;50.930;5.334;2024-02-26T02:56:08;20.30;76.10
10270;DHT22;70826;50.930;5.334;2024-02-26T02:58:33;20.30;76.20
10270;DHT22;70826;50.930;5.334;2024-02-26T03:01:04;20.30;76.20
10270;DHT22;70826;50.930;5.334;2024-02-26T03:03:32;20.30;76.20
10270;DHT22;70826;50.930;5.334;2024-02-26T03:06:02;20.30;76.20
10270;DHT22;70826;50.930;5.334;2024-02-26T03:08:30;20.30;76.20
10270;DHT22;70826;50.930;5.334;2024-02-26T03:11:01;20.30;76.20
10270;DHT22;70826;50.930;5.334;2024-02-26T03:13:26;20.30;76.20
10270;DHT22;70826;50.930;5.334;2024-02-26T03:15:54;20.30;76.20
10270;DHT22;70826;50.930;5.334;2024-02-26T03:18:22;20.30;76.20
10270;DHT22;70826;50.930;5.334;2024-02-26T03:20:53;20.30;76.20
10270;DHT22;70826;50.930;5.334;2024-02-26T03:23:24;20.30;76.20
10270;DHT22;70826;50.930;5.334;2024-02-26T03:25:52;20.30;76.10
10270;DHT22;70826;50.930;5.334;2024-02-26T03:28:20;20.30;76.20
10270;DHT22;70826;50.930;5.334;2024-02-26T03:30:50;20.30;76.20
10270;DHT22;70826;50.930;5.334;2024-02-26T03:33:18;20.30;76.20
10270;DHT22;70826;50.930;5.334;2024-02-26T03:35:48;20.30;76.20
10270;DHT22;70826;50.930;5.334;2024-02-26T03:38:16;20.30;76.20
10270;DHT22;70826;50.930;5.334;2024-02-26T03:40:42;20.30;76.30
10270;DHT22;70826;50.930;5.334;2024-02-26T03:43:08;20.30;76.30
10270;DHT22;70826;50.930;5.334;2024-02-26T03:45:38;20.30;76.30
10270;DHT22;70826;50.930;5.334;2024-02-26T03:48:04;20.30;76.30
10270;DHT22;70826;50.930;5.334;2024-02-26T03:50:32;20.30;76.30
10270;DHT22;70826;50.930;5.334;2024-02-26T03:53:01;20.30;76.30
10270;DHT22;70826;50.930;5.334;2024-02-26T03:55:29;20.30;76.20
10270;DHT22;70826;50.930;5.334;2024-02-26T03:58:01;20.30;76.30
10270;DHT22;70826;50.930;5.334;2024-02-26T04:00:32;20.30;76.30
10270;DHT22;70826;50.930;5.334;2024-02-26T04:02:59;20.30;76.30
10270;DHT22;70826;50.930;5.334;2024-02-26T04:05:30;20.30;76.20
10270;DHT22;70826;50.930;5.334;2024-02-26T04:07:58;20.30;76.30
10270;DHT22;70826;50.930;5.334;2024-02-26T04:10:23;20.30;76.20
10270;DHT22;70826;50.930;5.334;2024-02-26T04:12:52;20.30;76.20
10270;DHT22;70826;50.930;5.334;2024-02-26T04:15:20;20.30;76.20
10270;DHT22;70826;50.930;5.334;2024-02-26T04:17:47;20.30;76.30
10270;DHT22;70826;50.930;5.334;2024-02-26T04:20:16;20.30;76.30
10270;DHT22;70826;50.930;5.334;2024-02-26T04:22:42;20.30;76.30
10270;DHT22;70826;50.930;5.334;2024-02-26T04:25:08;20.30;76.30
10270;DHT22;70826;50.930;5.334;2024-02-26T04:27:36;20.30;76.30
10270;DHT22;70826;50.930;5.334;2024-02-26T04:30:07;20.30;76.30
10270;DHT22;70826;50.930;5.334;2024-02-26T04:32:38;20.30;76.30
10270;DHT22;70826;50.930;5.334;2024-02-26T04:35:06;20.30;76.30
10270;DHT22;70826;50.930;5.334;2024-02-26T04:37:35;20.30;76.30
10270;DHT22;70826;50.930;5.334;2024-02-26T04:40:03;20.30;76.30
10270;DHT22;70826;50.930;5.334;2024-02-26T04:42:30;20.30;76.30
10270;DHT22;70826;50.930;5.334;2024-02-26T04:44:57;20.30;76.30
10270;DHT22;70826;50.930;5.334;2024-02-26T04:47:25;20.30;76.30
10270;DHT22;70826;50.930;5.334;2024-02-26T04:49:51;20.30;76.30
10270;DHT22;70826;50.930;5.334;2024-02-26T04:52:18;20.30;76.30
10270;DHT22;70826;50.930;5.334;2024-02-26T04:54:46;20.30;76.30
10270;DHT22;70826;50.930;5.334;2024-02-26T04:57:11;20.30;76.30
10270;DHT22;70826;50.930;5.334;2024-02-26T04:59:39;20.30;76.30
10270;DHT22;70826;50.930;5.334;2024-02-26T05:02:08;20.30;76.20
10270;DHT22;70826;50.930;5.334;2024-02-26T05:04:33;20.30;76.20
10270;DHT22;70826;50.930;5.334;2024-02-26T05:07:06;20.30;76.20
10270;DHT22;70826;50.930;5.334;2024-02-26T05:09:34;20.30;76.20
10270;DHT22;70826;50.930;5.334;2024-02-26T05:12:03;20.30;76.20
10270;DHT22;70826;50.930;5.334;2024-02-26T05:14:29;20.30;76.20
10270;DHT22;70826;50.930;5.334;2024-02-26T05:16:59;20.30;76.20
10270;DHT22;70826;50.930;5.334;2024-02-26T05:19:27;20.30;76.20
10270;DHT22;70826;50.930;5.334;2024-02-26T05:21:55;20.30;76.20
10270;DHT22;70826;50.930;5.334;2024-02-26T05:24:22;20.30;76.30
10270;DHT22;70826;50.930;5.334;2024-02-26T05:26:48;20.30;76.20
10270;DHT22;70826;50.930;5.334;2024-02-26T05:29:16;20.30;76.30
10270;DHT22;70826;50.930;5.334;2024-02-26T05:31:45;20.30;76.30
10270;DHT22;70826;50.930;5.334;2024-02-26T05:34:12;20.30;76.30
10270;DHT22;70826;50.930;5.334;2024-02-26T05:36:38;20.30;76.30
10270;DHT22;70826;50.930;5.334;2024-02-26T05:39:04;20.30;76.30
10270;DHT22;70826;50.930;5.334;2024-02-26T05:41:32;20.30;76.30
10270;DHT22;70826;50.930;5.334;2024-02-26T05:44:01;20.30;76.30
10270;DHT22;70826;50.930;5.334;2024-02-26T05:46:29;20.30;76.30
10270;DHT22;70826;50.930;5.334;2024-02-26T05:48:57;20.30;76.20
10270;DHT22;70826;50.930;5.334;2024-02-26T05:51:23;20.30;76.30
10270;DHT22;70826;50.930;5.334;2024-02-26T05:53:51;20.30;76.30
10270;DHT22;70826;50.930;5.334;2024-02-26T05:56:20;20.30;76.30
10270;DHT22;70826;50.930;5.334;2024-02-26T05:58:48;20.30;76.30
10270;DHT22;70826;50.930;5.334;2024-02-26T06:01:16;20.30;76.30
10270;DHT22;70826;50.930;5.334;2024-02-26T06:03:42;20.30;76.30
10270;DHT22;70826;50.930;5.334;2024-02-26T06:06:08;20.30;76.30
10270;DHT22;70826;50.930;5.334;2024-02-26T06:08:36;20.30;76.30
10270;DHT22;70826;50.930;5.334;2024-02-26T06:11:08;20.30;76.30
10270;DHT22;70826;50.930;5.334;2024-02-26T06:13:36;20.30;76.30
10270;DHT22;70826;50.930;5.334;2024-02-26T06:16:04;20.30;76.30
10270;DHT22;70826;50.930;5.334;2024-02-26T06:18:30;20.30;76.30
10270;DHT22;70826;50.930;5.334;2024-02-26T06:20:58;20.30;76.30
10270;DHT22;70826;50.930;5.334;2024-02-26T06:23:28;20.30;76.90
10270;DHT22;70826;50.930;5.334;2024-02-26T06:25:56;20.30;76.30
10270;DHT22;70826;50.930;5.334;2024-02-26T06:28:25;20.30;76.30
10270;DHT22;70826;50.930;5.334;2024-02-26T06:30:50;20.30;76.30
10270;DHT22;70826;50.930;5.334;2024-02-26T06:33:17;20.30;76.30
10270;DHT22;70826;50.930;5.334;2024-02-26T06:35:46;20.30;76.30
10270;DHT22;70826;50.930;5.334;2024-02-26T06:38:17;20.30;76.30
10270;DHT22;70826;50.930;5.334;2024-02-26T06:40:46;20.30;76.30
10270;DHT22;70826;50.930;5.334;2024-02-26T06:43:11;20.30;76.30
10270;DHT22;70826;50.930;5.334;2024-02-26T06:45:37;20.30;76.30
10270;DHT22;70826;50.930;5.334;2024-02-26T06:48:03;20.30;76.30
10270;DHT22;70826;50.930;5.334;2024-02-26T06:50:31;20.30;76.30
10270;DHT22;70826;50.930;5.334;2024-02-26T06:52:59;20.30;76.30
10270;DHT22;70826;50.930;5.334;2024-02-26T06:55:25;20.30;76.30
10270;DHT22;70826;50.930;5.334;2024-02-26T06:57:50;20.30;76.30
10270;DHT22;70826;50.930;5.334;2024-02-26T07:00:18;20.20;76.20
10270;DHT22;70826;50.930;5.334;2024-02-26T07:02:46;20.20;76.30
10270;DHT22;70826;50.930;5.334;2024-02-26T07:05:14;20.20;76.30
10270;DHT22;70826;50.930;5.334;2024-02-26T07:07:47;20.30;76.30
10270;DHT22;70826;50.930;5.334;2024-02-26T07:10:15;20.30;76.30
10270;DHT22;70826;50.930;5.334;2024-02-26T07:12:43;20.30;76.30
10270;DHT22;70826;50.930;5.334;2024-02-26T07:15:09;20.30;76.30
10270;DHT22;70826;50.930;5.334;2024-02-26T07:17:35;20.30;76.30
10270;DHT22;70826;50.930;5.334;2024-02-26T07:20:03;20.20;76.20
10270;DHT22;70826;50.930;5.334;2024-02-26T07:22:35;20.30;76.30
10270;DHT22;70826;50.930;5.334;2024-02-26T07:25:00;20.30;76.20
10270;DHT22;70826;50.930;5.334;2024-02-26T07:27:28;20.30;76.20
10270;DHT22;70826;50.930;5.334;2024-02-26T07:29:54;20.30;76.20
10270;DHT22;70826;50.930;5.334;2024-02-26T07:32:22;20.30;76.20
10270;DHT22;70826;50.930;5.334;2024-02-26T07:34:47;20.30;76.30
10270;DHT22;70826;50.930;5.334;2024-02-26T07:37:13;20.30;76.20
10270;DHT22;70826;50.930;5.334;2024-02-26T07:39:39;20.30;76.20
10270;DHT22;70826;50.930;5.334;2024-02-26T07:42:04;20.30;76.20
10270;DHT22;70826;50.930;5.334;2024-02-26T07:44:33;20.30;76.20
10270;DHT22;70826;50.930;5.334;2024-02-26T07:46:58;20.30;76.20
10270;DHT22;70826;50.930;5.334;2024-02-26T07:49:24;20.20;76.20
10270;DHT22;70826;50.930;5.334;2024-02-26T07:51:50;20.30;76.10
10270;DHT22;70826;50.930;5.334;2024-02-26T07:54:15;20.30;76.30
10270;DHT22;70826;50.930;5.334;2024-02-26T07:56:44;20.20;75.90
10270;DHT22;70826;50.930;5.334;2024-02-26T07:59:12;20.30;75.90
10270;DHT22;70826;50.930;5.334;2024-02-26T08:01:41;20.20;75.90
10270;DHT22;70826;50.930;5.334;2024-02-26T08:04:07;20.20;75.90
10270;DHT22;70826;50.930;5.334;2024-02-26T08:06:35;20.30;75.90
10270;DHT22;70826;50.930;5.334;2024-02-26T08:09:03;20.30;75.90
10270;DHT22;70826;50.930;5.334;2024-02-26T08:11:30;20.20;75.90
10270;DHT22;70826;50.930;5.334;2024-02-26T08:14:00;20.20;76.00
10270;DHT22;70826;50.930;5.334;2024-02-26T08:16:30;20.30;76.00
10270;DHT22;70826;50.930;5.334;2024-02-26T08:18:56;20.30;75.90
10270;DHT22;70826;50.930;5.334;2024-02-26T08:21:21;20.30;75.90
10270;DHT22;70826;50.930;5.334;2024-02-26T08:23:52;20.30;75.90
10270;DHT22;70826;50.930;5.334;2024-02-26T08:26:20;20.30;75.90
10270;DHT22;70826;50.930;5.334;2024-02-26T08:28:50;20.30;75.90
10270;DHT22;70826;50.930;5.334;2024-02-26T08:31:17;20.30;75.90
10270;DHT22;70826;50.930;5.334;2024-02-26T08:33:46;20.30;75.90
10270;DHT22;70826;50.930;5.334;2024-02-26T08:36:16;20.30;75.90
10270;DHT22;70826;50.930;5.334;2024-02-26T08:38:44;20.30;76.00
10270;DHT22;70826;50.930;5.334;2024-02-26T08:41:15;20.20;75.90
10270;DHT22;70826;50.930;5.334;2024-02-26T08:43:45;20.30;75.90
10270;DHT22;70826;50.930;5.334;2024-02-26T08:46:14;20.20;76.00
10270;DHT22;70826;50.930;5.334;2024-02-26T08:48:42;20.30;76.00
10270;DHT22;70826;50.930;5.334;2024-02-26T08:51:11;20.20;75.90
10270;DHT22;70826;50.930;5.334;2024-02-26T08:53:38;20.30;76.00
10270;DHT22;70826;50.930;5.334;2024-02-26T08:56:05;20.20;76.00
10270;DHT22;70826;50.930;5.334;2024-02-26T08:58:33;20.20;76.00
10270;DHT22;70826;50.930;5.334;2024-02-26T09:00:59;20.20;75.90
10270;DHT22;70826;50.930;5.334;2024-02-26T09:03:26;20.30;76.00
10270;DHT22;70826;50.930;5.334;2024-02-26T09:05:52;20.30;76.00
10270;DHT22;70826;50.930;5.334;2024-02-26T09:08:22;20.30;75.90
10270;DHT22;70826;50.930;5.334;2024-02-26T09:10:51;20.30;75.90
10270;DHT22;70826;50.930;5.334;2024-02-26T09:13:19;20.30;75.90
10270;DHT22;70826;50.930;5.334;2024-02-26T09:15:49;20.30;75.90
10270;DHT22;70826;50.930;5.334;2024-02-26T09:18:17;20.30;76.00
10270;DHT22;70826;50.930;5.334;2024-02-26T09:20:48;20.20;75.90
10270;DHT22;70826;50.930;5.334;2024-02-26T09:23:16;20.20;75.90
10270;DHT22;70826;50.930;5.334;2024-02-26T09:25:44;20.20;76.00
10270;DHT22;70826;50.930;5.334;2024-02-26T09:28:12;20.20;76.00
10270;DHT22;70826;50.930;5.334;2024-02-26T09:30:38;20.20;76.70
10270;DHT22;70826;50.930;5.334;2024-02-26T09:33:06;20.10;76.50
10270;DHT22;70826;50.930;5.334;2024-02-26T09:35:34;20.00;76.80
10270;DHT22;70826;50.930;5.334;2024-02-26T09:38:02;20.00;77.10
10270;DHT22;70826;50.930;5.334;2024-02-26T09:40:28;20.00;77.30
10270;DHT22;70826;50.930;5.334;2024-02-26T09:42:59;20.00;77.50
10270;DHT22;70826;50.930;5.334;2024-02-26T09:45:28;20.00;77.70
10270;DHT22;70826;50.930;5.334;2024-02-26T09:47:56;20.00;77.80
10270;DHT22;70826;50.930;5.334;2024-02-26T09:50:22;20.00;77.90
10270;DHT22;70826;50.930;5.334;2024-02-26T09:52:51;20.00;78.00
10270;DHT22;70826;50.930;5.334;2024-02-26T09:55:18;20.10;78.00
10270;DHT22;70826;50.930;5.334;2024-02-26T09:57:46;20.20;78.20
10270;DHT22;70826;50.930;5.334;2024-02-26T10:00:20;20.20;78.30
10270;DHT22;70826;50.930;5.334;2024-02-26T10:02:46;20.20;78.40
10270;DHT22;70826;50.930;5.334;2024-02-26T10:05:21;20.20;78.40
10270;DHT22;70826;50.930;5.334;2024-02-26T10:07:48;20.20;78.50
10270;DHT22;70826;50.930;5.334;2024-02-26T10:10:17;20.30;78.70
10270;DHT22;70826;50.930;5.334;2024-02-26T10:12:49;20.30;78.60
10270;DHT22;70826;50.930;5.334;2024-02-26T10:15:15;20.30;78.60
10270;DHT22;70826;50.930;5.334;2024-02-26T10:17:45;20.40;78.60
10270;DHT22;70826;50.930;5.334;2024-02-26T10:20:17;20.40;78.60
10270;DHT22;70826;50.930;5.334;2024-02-26T10:22:43;20.40;78.60
10270;DHT22;70826;50.930;5.334;2024-02-26T10:25:14;20.50;78.60
10270;DHT22;70826;50.930;5.334;2024-02-26T10:27:43;20.50;78.60
10270;DHT22;70826;50.930;5.334;2024-02-26T10:30:21;20.60;78.40
10270;DHT22;70826;50.930;5.334;2024-02-26T10:32:51;20.70;78.00
10270;DHT22;70826;50.930;5.334;2024-02-26T10:35:18;20.90;77.60
10270;DHT22;70826;50.930;5.334;2024-02-26T10:37:47;20.90;77.20
10270;DHT22;70826;50.930;5.334;2024-02-26T10:40:15;21.00;77.00
10270;DHT22;70826;50.930;5.334;2024-02-26T10:42:44;21.00;76.80
10270;DHT22;70826;50.930;5.334;2024-02-26T10:45:18;21.00;76.70
10270;DHT22;70826;50.930;5.334;2024-02-26T10:47:47;21.00;76.60
10270;DHT22;70826;50.930;5.334;2024-02-26T10:50:15;21.00;76.50
10270;DHT22;70826;50.930;5.334;2024-02-26T10:52:44;21.00;76.50
10270;DHT22;70826;50.930;5.334;2024-02-26T10:55:16;21.00;76.40
10270;DHT22;70826;50.930;5.334;2024-02-26T10:57:45;20.90;76.30
10270;DHT22;70826;50.930;5.334;2024-02-26T11:00:17;20.90;76.20
10270;DHT22;70826;50.930;5.334;2024-02-26T11:02:47;20.90;76.20
10270;DHT22;70826;50.930;5.334;2024-02-26T11:05:14;21.00;76.10
10270;DHT22;70826;50.930;5.334;2024-02-26T11:07:41;21.00;76.00
10270;DHT22;70826;50.930;5.334;2024-02-26T11:10:08;21.00;76.00
10270;DHT22;70826;50.930;5.334;2024-02-26T11:12:37;21.00;75.90
10270;DHT22;70826;50.930;5.334;2024-02-26T11:15:04;21.00;75.90
10270;DHT22;70826;50.930;5.334;2024-02-26T11:17:33;20.90;75.80
10270;DHT22;70826;50.930;5.334;2024-02-26T11:20:04;20.90;75.70
10270;DHT22;70826;50.930;5.334;2024-02-26T11:22:33;20.90;75.70
10270;DHT22;70826;50.930;5.334;2024-02-26T11:25:01;20.90;75.70
10270;DHT22;70826;50.930;5.334;2024-02-26T11:27:34;20.90;75.70
10270;DHT22;70826;50.930;5.334;2024-02-26T11:30:04;20.90;75.70
10270;DHT22;70826;50.930;5.334;2024-02-26T11:32:33;20.90;75.70
10270;DHT22;70826;50.930;5.334;2024-02-26T11:35:00;20.90;75.70
10270;DHT22;70826;50.930;5.334;2024-02-26T11:37:29;20.90;75.70
10270;DHT22;70826;50.930;5.334;2024-02-26T11:40:01;20.90;75.70
10270;DHT22;70826;50.930;5.334;2024-02-26T11:42:29;20.90;75.70
10270;DHT22;70826;50.930;5.334;2024-02-26T11:44:57;20.80;75.70
10270;DHT22;70826;50.930;5.334;2024-02-26T11:47:28;20.80;75.70
10270;DHT22;70826;50.930;5.334;2024-02-26T11:49:55;20.80;75.70
10270;DHT22;70826;50.930;5.334;2024-02-26T11:52:21;20.80;75.70
10270;DHT22;70826;50.930;5.334;2024-02-26T11:54:51;20.80;75.80
10270;DHT22;70826;50.930;5.334;2024-02-26T11:57:28;20.80;75.80
10270;DHT22;70826;50.930;5.334;2024-02-26T12:00:14;20.80;75.80
10270;DHT22;70826;50.930;5.334;2024-02-26T12:02:50;20.80;75.80
10270;DHT22;70826;50.930;5.334;2024-02-26T12:05:21;20.70;75.70
10270;DHT22;70826;50.930;5.334;2024-02-26T12:07:53;20.70;75.70
10270;DHT22;70826;50.930;5.334;2024-02-26T12:13:03;20.70;75.70
10270;DHT22;70826;50.930;5.334;2024-02-26T12:15:37;20.70;75.70
10270;DHT22;70826;50.930;5.334;2024-02-26T12:18:09;20.70;75.80
10270;DHT22;70826;50.930;5.334;2024-02-26T12:20:38;20.70;75.70
10270;DHT22;70826;50.930;5.334;2024-02-26T12:23:06;20.70;75.80
10270;DHT22;70826;50.930;5.334;2024-02-26T12:25:33;20.70;75.80
10270;DHT22;70826;50.930;5.334;2024-02-26T12:28:03;20.70;75.80
10270;DHT22;70826;50.930;5.334;2024-02-26T12:30:33;20.70;75.80
10270;DHT22;70826;50.930;5.334;2024-02-26T12:32:59;20.70;75.80
10270;DHT22;70826;50.930;5.334;2024-02-26T12:35:28;20.70;75.80
10270;DHT22;70826;50.930;5.334;2024-02-26T12:37:57;20.70;75.80
10270;DHT22;70826;50.930;5.334;2024-02-26T12:40:23;20.70;75.80
10270;DHT22;70826;50.930;5.334;2024-02-26T12:42:55;20.70;75.80
10270;DHT22;70826;50.930;5.334;2024-02-26T12:45:25;20.70;75.80
10270;DHT22;70826;50.930;5.334;2024-02-26T12:47:51;20.70;75.90
10270;DHT22;70826;50.930;5.334;2024-02-26T12:50:17;20.70;75.90
10270;DHT22;70826;50.930;5.334;2024-02-26T12:52:47;20.70;75.90
10270;DHT22;70826;50.930;5.334;2024-02-26T12:55:20;20.60;75.80
10270;DHT22;70826;50.930;5.334;2024-02-26T12:57:49;20.60;75.80
10270;DHT22;70826;50.930;5.334;2024-02-26T13:00:20;20.60;75.80
10270;DHT22;70826;50.930;5.334;2024-02-26T13:02:50;20.60;75.80
10270;DHT22;70826;50.930;5.334;2024-02-26T13:05:21;20.60;75.80
10270;DHT22;70826;50.930;5.334;2024-02-26T13:07:48;20.60;75.80
10270;DHT22;70826;50.930;5.334;2024-02-26T13:10:16;20.60;75.80
10270;DHT22;70826;50.930;5.334;2024-02-26T13:15:14;20.60;75.80
10270;DHT22;70826;50.930;5.334;2024-02-26T13:17:40;20.60;75.90
10270;DHT22;70826;50.930;5.334;2024-02-26T13:20:08;20.60;75.90
10270;DHT22;70826;50.930;5.334;2024-02-26T13:22:35;20.60;75.80
10270;DHT22;70826;50.930;5.334;2024-02-26T13:25:03;20.60;75.90
10270;DHT22;70826;50.930;5.334;2024-02-26T13:27:33;20.60;75.90
10270;DHT22;70826;50.930;5.334;2024-02-26T13:30:11;20.60;75.90
10270;DHT22;70826;50.930;5.334;2024-02-26T13:32:39;20.60;75.90
10270;DHT22;70826;50.930;5.334;2024-02-26T13:35:14;20.60;75.90
10270;DHT22;70826;50.930;5.334;2024-02-26T13:37:46;20.60;75.90
10270;DHT22;70826;50.930;5.334;2024-02-26T13:40:11;20.60;76.00
10270;DHT22;70826;50.930;5.334;2024-02-26T13:42:40;20.60;75.90
10270;DHT22;70826;50.930;5.334;2024-02-26T13:45:06;20.50;75.90
10270;DHT22;70826;50.930;5.334;2024-02-26T13:47:38;20.60;75.90
10270;DHT22;70826;50.930;5.334;2024-02-26T13:50:04;20.60;75.90
10270;DHT22;70826;50.930;5.334;2024-02-26T13:52:32;20.60;75.90
10270;DHT22;70826;50.930;5.334;2024-02-26T13:55:02;20.60;75.90
10270;DHT22;70826;50.930;5.334;2024-02-26T13:57:31;20.60;76.00
10270;DHT22;70826;50.930;5.334;2024-02-26T13:59:56;20.60;75.90
10270;DHT22;70826;50.930;5.334;2024-02-26T14:02:27;20.60;75.90
10270;DHT22;70826;50.930;5.334;2024-02-26T14:04:52;20.60;75.90
10270;DHT22;70826;50.930;5.334;2024-02-26T14:07:20;20.60;76.00
10270;DHT22;70826;50.930;5.334;2024-02-26T14:09:50;20.60;75.90
10270;DHT22;70826;50.930;5.334;2024-02-26T14:12:19;20.50;75.90
10270;DHT22;70826;50.930;5.334;2024-02-26T14:14:47;20.50;75.90
10270;DHT22;70826;50.930;5.334;2024-02-26T14:17:15;20.60;76.00
10270;DHT22;70826;50.930;5.334;2024-02-26T14:19:45;20.60;76.00
10270;DHT22;70826;50.930;5.334;2024-02-26T14:22:16;20.50;75.90
10270;DHT22;70826;50.930;5.334;2024-02-26T14:24:44;20.50;75.90
10270;DHT22;70826;50.930;5.334;2024-02-26T14:27:12;20.50;76.00
10270;DHT22;70826;50.930;5.334;2024-02-26T14:29:44;20.50;76.00
10270;DHT22;70826;50.930;5.334;2024-02-26T14:32:12;20.50;75.90
10270;DHT22;70826;50.930;5.334;2024-02-26T14:34:40;20.60;76.00
10270;DHT22;70826;50.930;5.334;2024-02-26T14:37:10;20.60;76.00
10270;DHT22;70826;50.930;5.334;2024-02-26T14:39:39;20.60;75.90
10270;DHT22;70826;50.930;5.334;2024-02-26T14:42:07;20.50;75.90
10270;DHT22;70826;50.930;5.334;2024-02-26T14:44:35;20.60;76.00
10270;DHT22;70826;50.930;5.334;2024-02-26T14:47:03;20.60;76.00
10270;DHT22;70826;50.930;5.334;2024-02-26T14:49:29;20.50;75.90
10270;DHT22;70826;50.930;5.334;2024-02-26T14:51:59;20.50;75.90
10270;DHT22;70826;50.930;5.334;2024-02-26T14:54:24;20.50;75.90
10270;DHT22;70826;50.930;5.334;2024-02-26T14:56:50;20.50;75.90
10270;DHT22;70826;50.930;5.334;2024-02-26T14:59:18;20.50;75.90
10270;DHT22;70826;50.930;5.334;2024-02-26T15:01:46;20.50;75.90
10270;DHT22;70826;50.930;5.334;2024-02-26T15:04:12;20.50;75.90
10270;DHT22;70826;50.930;5.334;2024-02-26T15:06:44;20.50;75.90
10270;DHT22;70826;50.930;5.334;2024-02-26T15:09:10;20.50;76.00
10270;DHT22;70826;50.930;5.334;2024-02-26T15:11:42;20.50;76.00
10270;DHT22;70826;50.930;5.334;2024-02-26T15:14:11;20.50;76.00
10270;DHT22;70826;50.930;5.334;2024-02-26T15:16:42;20.50;76.00
10270;DHT22;70826;50.930;5.334;2024-02-26T15:19:10;20.50;76.00
10270;DHT22;70826;50.930;5.334;2024-02-26T15:21:45;20.50;76.00
10270;DHT22;70826;50.930;5.334;2024-02-26T15:24:15;20.50;76.00
10270;DHT22;70826;50.930;5.334;2024-02-26T15:26:47;20.50;76.00
10270;DHT22;70826;50.930;5.334;2024-02-26T15:29:15;20.50;76.00
10270;DHT22;70826;50.930;5.334;2024-02-26T15:31:41;20.50;76.10
10270;DHT22;70826;50.930;5.334;2024-02-26T15:34:08;20.50;76.00
10270;DHT22;70826;50.930;5.334;2024-02-26T15:36:35;20.50;76.00
10270;DHT22;70826;50.930;5.334;2024-02-26T15:39:01;20.50;76.00
10270;DHT22;70826;50.930;5.334;2024-02-26T15:41:27;20.50;76.10